Aérodrome :
LOGIN :

S'inscrire | Disclaimer

   EN    FR    IT 

 










Légende :    VFR   VFR Marginal   IFR   IFR Intensif   IFR Très Intensif
Visi : 
Plafond : 
>= 8 km
>= 3000ft
5 à 8 km
1000 à 3000 ft
1500m à 5 km
500 à 1000 ft
800 à 1500m
200 à 500 ft
< 800m
< 200 ft
Symboles :   Orages  Brouillard  Fortes neiges  Fortes précipitations  Vent > 20 kt
SIGMETs :   Divers  Orages  Givrage  Turbulence  Onde Orograph.  Cendres Volcan.






- Altitude de l'aérodrome : 755 ft
- Code IATA : RWN


UKLR - Rivne

DERNIER METAR :
  • 091100Z 25003MPS 220V290 9999 SCT023CB 18/12 Q1019 R29/190060 NOSIG

METARs EXPIRÉS :
  • 091000Z 23004MPS 200V280 9999 SCT020CB 18/12 Q1019 R29/190060 NOSIG
  • 090900Z 25002MPS 160V340 9999 SCT020CB 18/13 Q1019 R29/190060 NOSIG

TAF TAF UKLR
Valide du 09 à 09h jusqu'au 09 à 18h UTC


090807Z 0909/0918 25003G08MPS 9999 BKN010 BKN020CB
TEMPO 0909/0916 28006G11MPS 2100 -SHRA BKN007 BKN013CB



MET'MAP, la Météo Aéronautique d'un coup d'oeil ! - Copyright ORBIFLY Décembre 2007 - Disclaimer

ORBIFLY MET'MAP TEAM :

Programmation & Développement : Alexandra Zaïnal
Sur une idée originale de : Baudouin d'Aumeries
Assistance à la programmation : Marc-Olivier Méhu
Soutien technique & logistique : Manuel Goepfert

Contact : metmap@orbifly.com




SOURCES & CREDITS :

   NOAA